createdAt,value
2023-02-13T00:01:26.002Z,29.46
2023-02-13T00:03:54.639Z,29.30
2023-02-13T00:06:23.169Z,29.50
2023-02-13T00:08:51.792Z,29.52
2023-02-13T00:11:20.859Z,29.50
2023-02-13T00:13:49.709Z,29.38
2023-02-13T00:16:18.084Z,29.55
2023-02-13T00:18:46.658Z,29.50
2023-02-13T00:21:15.353Z,29.71
2023-02-13T00:23:43.904Z,29.64
2023-02-13T00:26:14.576Z,29.67
2023-02-13T00:28:46.140Z,29.59
2023-02-13T00:31:17.204Z,29.55
2023-02-13T00:33:46.292Z,29.63
2023-02-13T00:36:19.264Z,29.67
2023-02-13T00:38:47.851Z,29.67
2023-02-13T00:41:17.602Z,29.67
2023-02-13T00:43:47.142Z,29.73
2023-02-13T00:46:16.683Z,29.68
2023-02-13T00:48:45.322Z,29.83
2023-02-13T00:51:13.793Z,29.92
2023-02-13T00:53:42.337Z,29.94
2023-02-13T00:56:10.727Z,29.80
2023-02-13T00:58:39.697Z,29.77
2023-02-13T01:01:07.958Z,29.94
2023-02-13T01:03:36.847Z,29.90
2023-02-13T01:06:05.654Z,29.86
2023-02-13T01:08:34.878Z,29.89
2023-02-13T01:11:03.172Z,29.98
2023-02-13T01:13:31.841Z,29.97
2023-02-13T01:16:00.120Z,29.96
2023-02-13T01:18:29.249Z,29.80
2023-02-13T01:21:04.160Z,29.90
2023-02-13T01:23:34.398Z,29.81
2023-02-13T01:26:07.192Z,29.92
2023-02-13T01:28:35.921Z,29.98
2023-02-13T01:31:06.255Z,30.15
2023-02-13T01:33:36.272Z,30.06
2023-02-13T01:36:12.046Z,30.03
2023-02-13T01:38:41.445Z,30.06
2023-02-13T01:41:10.934Z,30.13
2023-02-13T01:43:45.566Z,30.09
2023-02-13T01:46:18.738Z,30.00
2023-02-13T01:48:48.647Z,30.11
2023-02-13T01:51:20.843Z,30.17
2023-02-13T01:53:59.959Z,30.13
2023-02-13T01:56:34.487Z,30.03
2023-02-13T01:59:08.989Z,30.17
2023-02-13T02:01:37.664Z,30.17
2023-02-13T02:04:22.779Z,30.19
2023-02-13T02:07:00.452Z,30.27
2023-02-13T02:09:35.293Z,30.36
2023-02-13T02:12:27.013Z,30.06
2023-02-13T02:14:58.222Z,30.46
2023-02-13T02:17:27.976Z,30.24
2023-02-13T02:20:17.787Z,30.26
2023-02-13T02:23:38.432Z,30.60
2023-02-13T02:26:30.920Z,30.34
2023-02-13T02:29:24.000Z,30.17
2023-02-13T02:32:20.119Z,30.63
2023-02-13T02:35:12.271Z,31.78
2023-02-13T02:38:02.812Z,30.78
2023-02-13T02:40:43.762Z,31.68
2023-02-13T02:43:24.849Z,30.71
2023-02-13T02:46:35.306Z,30.99
2023-02-13T02:49:26.841Z,30.85
2023-02-13T02:52:20.781Z,30.65
2023-02-13T02:55:09.159Z,30.92
2023-02-13T02:58:21.300Z,32.72
2023-02-13T03:01:09.560Z,30.71
2023-02-13T03:03:58.777Z,31.01
2023-02-13T03:06:51.116Z,30.98
2023-02-13T03:09:45.506Z,31.84
2023-02-13T03:12:38.030Z,32.25
2023-02-13T03:15:06.511Z,31.07
2023-02-13T03:17:53.707Z,31.92
2023-02-13T03:21:06.380Z,30.95
2023-02-13T03:24:12.380Z,32.21
2023-02-13T03:26:58.412Z,31.13
2023-02-13T03:29:58.087Z,32.35
2023-02-13T03:32:37.045Z,32.24
2023-02-13T03:35:38.582Z,32.33
2023-02-13T03:38:17.034Z,32.07
2023-02-13T03:41:09.448Z,31.26
2023-02-13T03:43:54.973Z,31.50
2023-02-13T03:46:25.413Z,32.48
2023-02-13T03:49:12.912Z,32.09
2023-02-13T03:51:51.913Z,31.94
2023-02-13T03:54:46.612Z,32.35
2023-02-13T03:57:37.521Z,32.03
2023-02-13T04:00:09.466Z,32.09
2023-02-13T04:02:51.362Z,31.58
2023-02-13T04:05:24.361Z,32.66
2023-02-13T04:07:52.722Z,32.93
2023-02-13T04:10:22.111Z,32.18
2023-02-13T04:12:55.288Z,31.86
2023-02-13T04:15:39.500Z,32.46
2023-02-13T04:18:43.261Z,32.04
2023-02-13T04:21:11.216Z,31.46
2023-02-13T04:23:39.404Z,32.34
2023-02-13T04:26:09.903Z,32.19
2023-02-13T04:28:38.508Z,31.97
2023-02-13T04:31:06.647Z,31.58
2023-02-13T04:33:35.072Z,33.23
2023-02-13T04:36:03.096Z,31.21
2023-02-13T04:38:31.467Z,31.07
2023-02-13T04:40:59.646Z,30.83
2023-02-13T04:43:28.154Z,30.79
2023-02-13T04:45:56.119Z,31.03
2023-02-13T04:48:24.549Z,30.31
2023-02-13T04:50:52.535Z,30.32
2023-02-13T04:53:20.888Z,30.33
2023-02-13T04:55:48.808Z,29.86
2023-02-13T04:58:17.072Z,29.73
2023-02-13T05:00:45.124Z,29.61
2023-02-13T05:03:13.957Z,29.46
2023-02-13T05:05:41.957Z,29.80
2023-02-13T05:08:10.373Z,29.36
2023-02-13T05:10:38.304Z,29.05
2023-02-13T05:13:06.965Z,28.96
2023-02-13T05:15:35.025Z,28.84
2023-02-13T05:18:03.423Z,28.90
2023-02-13T05:20:31.406Z,28.73
2023-02-13T05:23:18.250Z,29.02
2023-02-13T05:25:46.214Z,28.51
2023-02-13T05:28:33.832Z,28.53
2023-02-13T05:31:02.231Z,28.38
2023-02-13T05:33:30.923Z,28.40
2023-02-13T05:35:58.914Z,28.02
2023-02-13T05:38:27.325Z,27.77
2023-02-13T05:40:55.826Z,27.79
2023-02-13T05:43:24.566Z,27.90
2023-02-13T05:45:52.668Z,28.03
2023-02-13T05:48:21.020Z,27.83
2023-02-13T05:50:49.090Z,27.65
2023-02-13T05:53:17.378Z,27.73
2023-02-13T05:55:45.417Z,27.40
2023-02-13T05:58:14.134Z,27.67
2023-02-13T06:00:42.158Z,27.54
2023-02-13T06:03:10.451Z,27.68
2023-02-13T06:05:38.633Z,27.86
2023-02-13T06:08:06.937Z,27.66
2023-02-13T06:10:34.904Z,27.63
2023-02-13T06:13:03.352Z,27.78
2023-02-13T06:15:32.013Z,27.84
2023-02-13T06:18:01.328Z,27.83
2023-02-13T06:20:29.486Z,27.71
2023-02-13T06:22:57.921Z,27.98
2023-02-13T06:25:26.024Z,27.95
2023-02-13T06:27:54.600Z,28.18
2023-02-13T06:30:22.904Z,28.09
2023-02-13T06:32:51.395Z,28.32
2023-02-13T06:35:19.414Z,28.16
2023-02-13T06:37:49.215Z,28.02
2023-02-13T06:40:17.703Z,28.32
2023-02-13T06:42:46.313Z,28.09
2023-02-13T06:45:14.888Z,28.18
2023-02-13T06:47:45.067Z,28.05
2023-02-13T06:50:14.957Z,28.18
2023-02-13T06:52:51.438Z,28.47
2023-02-13T06:55:21.069Z,28.48
2023-02-13T06:57:49.676Z,28.45
2023-02-13T07:00:19.479Z,28.69
2023-02-13T07:02:48.536Z,28.56
2023-02-13T07:05:17.201Z,28.72
2023-02-13T07:07:45.860Z,29.01
2023-02-13T07:10:15.139Z,28.92
2023-02-13T07:12:45.738Z,28.97
2023-02-13T07:15:15.646Z,29.29
2023-02-13T07:17:44.186Z,29.18
2023-02-13T07:20:13.680Z,29.21
2023-02-13T07:22:42.348Z,29.41
2023-02-13T07:25:10.611Z,29.32
2023-02-13T07:27:40.263Z,29.29
2023-02-13T07:30:09.827Z,29.39
2023-02-13T07:32:38.349Z,29.67
2023-02-13T07:35:06.716Z,29.73
2023-02-13T07:37:35.357Z,29.78
2023-02-13T07:40:05.674Z,29.74
2023-02-13T07:42:35.639Z,29.77
2023-02-13T07:45:06.243Z,29.81
2023-02-13T07:47:35.363Z,29.91
2023-02-13T07:50:06.299Z,30.01
2023-02-13T07:52:34.901Z,30.10
2023-02-13T07:55:03.249Z,30.08
2023-02-13T07:57:32.165Z,30.25
2023-02-13T08:00:00.411Z,30.19
2023-02-13T08:02:29.074Z,30.50
2023-02-13T08:04:57.340Z,30.37
2023-02-13T08:07:25.963Z,30.48
2023-02-13T08:10:12.809Z,30.66
2023-02-13T08:12:41.721Z,30.73
2023-02-13T08:15:12.886Z,30.64
2023-02-13T08:17:41.716Z,30.64
2023-02-13T08:20:10.570Z,30.68
2023-02-13T08:22:39.842Z,30.75
2023-02-13T08:25:08.396Z,30.64
2023-02-13T08:27:36.977Z,30.99
2023-02-13T08:30:06.457Z,30.88
2023-02-13T08:32:42.077Z,30.97
2023-02-13T08:35:20.447Z,30.84
2023-02-13T08:37:49.725Z,30.91
2023-02-13T08:40:18.249Z,31.04
2023-02-13T08:42:46.828Z,31.00
2023-02-13T08:45:15.156Z,30.86
2023-02-13T08:47:43.736Z,30.72
2023-02-13T08:50:12.046Z,30.68
2023-02-13T08:52:40.556Z,30.82
2023-02-13T08:55:08.987Z,30.70
2023-02-13T08:57:37.705Z,30.83
2023-02-13T09:00:06.485Z,30.67
2023-02-13T09:02:35.133Z,30.50
2023-02-13T09:05:03.498Z,30.75
2023-02-13T09:07:31.957Z,30.74
2023-02-13T09:10:00.231Z,30.71
2023-02-13T09:12:28.766Z,31.00
2023-02-13T09:14:57.096Z,30.63
2023-02-13T09:17:25.917Z,30.66
2023-02-13T09:19:54.079Z,30.81
2023-02-13T09:22:22.652Z,30.70
2023-02-13T09:24:50.801Z,30.87
2023-02-13T09:27:19.349Z,30.68
2023-02-13T09:29:47.677Z,30.81
2023-02-13T09:32:17.628Z,30.75
2023-02-13T09:34:45.829Z,30.94
2023-02-13T09:37:14.403Z,30.86
2023-02-13T09:39:42.752Z,30.96
2023-02-13T09:42:18.822Z,30.85
2023-02-13T09:44:49.157Z,31.00
2023-02-13T09:47:43.135Z,30.90
2023-02-13T09:50:17.558Z,30.96
2023-02-13T09:52:47.072Z,30.93
2023-02-13T09:55:29.406Z,30.98
2023-02-13T09:58:21.009Z,31.01
2023-02-13T10:00:53.702Z,30.96
2023-02-13T10:03:29.645Z,30.71
2023-02-13T10:06:36.561Z,30.96
2023-02-13T10:09:05.123Z,31.04
2023-02-13T10:11:48.649Z,31.00
2023-02-13T10:14:20.329Z,31.04
2023-02-13T10:16:55.692Z,30.97
2023-02-13T10:19:43.084Z,30.97
2023-02-13T10:23:00.322Z,31.12
2023-02-13T10:25:32.072Z,31.20
2023-02-13T10:28:06.464Z,31.21
2023-02-13T10:30:42.689Z,31.11
2023-02-13T10:33:23.720Z,31.12
2023-02-13T10:36:10.364Z,31.15
2023-02-13T10:38:45.166Z,30.86
2023-02-13T10:41:23.236Z,30.73
2023-02-13T10:44:06.562Z,30.62
2023-02-13T10:46:41.047Z,30.50
2023-02-13T10:49:27.573Z,30.37
2023-02-13T10:52:40.530Z,30.10
2023-02-13T10:55:33.121Z,29.98
2023-02-13T10:58:20.792Z,29.86
2023-02-13T11:00:56.046Z,29.57
2023-02-13T11:03:27.320Z,29.68
2023-02-13T11:05:57.023Z,29.49
2023-02-13T11:08:29.187Z,29.28
2023-02-13T11:10:57.252Z,29.32
2023-02-13T11:13:28.620Z,28.79
2023-02-13T11:15:58.241Z,28.98
2023-02-13T11:18:29.758Z,28.75
2023-02-13T11:21:02.945Z,28.83
2023-02-13T11:23:31.215Z,28.69
2023-02-13T11:26:10.202Z,28.64
2023-02-13T11:28:51.634Z,28.54
2023-02-13T11:31:22.892Z,28.35
2023-02-13T11:33:51.445Z,28.41
2023-02-13T11:36:33.910Z,28.51
2023-02-13T11:39:05.534Z,28.43
2023-02-13T11:41:41.608Z,28.47
2023-02-13T11:44:26.871Z,28.97
2023-02-13T11:46:57.122Z,28.90
2023-02-13T11:49:28.334Z,29.03
2023-02-13T11:51:58.582Z,29.07
2023-02-13T11:54:36.795Z,29.19
2023-02-13T11:57:24.861Z,29.10
2023-02-13T11:59:54.047Z,29.42
2023-02-13T12:02:28.430Z,29.48
2023-02-13T12:05:16.913Z,30.48
2023-02-13T12:07:45.991Z,31.11
2023-02-13T12:10:24.508Z,31.03
2023-02-13T12:13:03.175Z,31.38
2023-02-13T12:15:37.293Z,31.97
2023-02-13T12:18:23.054Z,31.38
2023-02-13T12:21:03.644Z,31.55
2023-02-13T12:23:40.842Z,30.93
2023-02-13T12:26:45.730Z,30.60
2023-02-13T12:29:37.738Z,29.85
2023-02-13T12:32:22.528Z,29.92
2023-02-13T12:35:13.391Z,29.81
2023-02-13T12:37:47.573Z,29.74
2023-02-13T12:40:21.360Z,29.96
2023-02-13T12:43:03.724Z,30.03
2023-02-13T12:45:31.804Z,29.96
2023-02-13T12:48:03.073Z,30.17
2023-02-13T12:50:39.949Z,30.21
2023-02-13T12:53:42.597Z,30.06
2023-02-13T12:56:32.108Z,30.29
2023-02-13T12:59:22.247Z,30.20
2023-02-13T13:02:21.679Z,30.20
2023-02-13T13:05:12.660Z,30.24
2023-02-13T13:07:52.601Z,30.40
2023-02-13T13:10:27.538Z,30.57
2023-02-13T13:13:14.311Z,30.51
2023-02-13T13:16:08.360Z,30.53
2023-02-13T13:18:58.776Z,30.38
2023-02-13T13:21:33.430Z,30.69
2023-02-13T13:24:08.681Z,30.53
2023-02-13T13:26:42.630Z,30.70
2023-02-13T13:29:19.642Z,30.62
2023-02-13T13:32:08.795Z,30.63
2023-02-13T13:34:39.553Z,30.64
2023-02-13T13:37:17.440Z,30.67
2023-02-13T13:40:04.052Z,30.60
2023-02-13T13:42:55.605Z,30.83
2023-02-13T13:45:35.982Z,30.65
2023-02-13T13:48:43.729Z,30.59
2023-02-13T13:51:15.134Z,30.67
2023-02-13T13:54:01.855Z,30.94
2023-02-13T13:57:08.872Z,30.86
2023-02-13T13:59:37.243Z,30.72
2023-02-13T14:02:17.283Z,30.89
2023-02-13T14:05:04.485Z,30.89
2023-02-13T14:07:37.763Z,30.95
2023-02-13T14:10:07.584Z,30.98
2023-02-13T14:12:37.351Z,31.30
2023-02-13T14:15:26.233Z,31.24
2023-02-13T14:17:55.069Z,31.58
2023-02-13T14:20:36.987Z,31.55
2023-02-13T14:23:17.267Z,31.55
2023-02-13T14:25:45.878Z,31.55
2023-02-13T14:28:24.147Z,31.54
2023-02-13T14:31:04.514Z,31.56
2023-02-13T14:33:33.090Z,31.63
2023-02-13T14:36:17.758Z,31.69
2023-02-13T14:39:08.318Z,31.67
2023-02-13T14:41:51.870Z,31.85
2023-02-13T14:44:51.505Z,31.86
2023-02-13T14:47:33.692Z,31.76
2023-02-13T14:50:04.732Z,31.77
2023-02-13T14:52:40.655Z,31.74
2023-02-13T14:55:14.067Z,31.67
2023-02-13T14:57:49.876Z,31.75
2023-02-13T15:00:55.301Z,31.63
2023-02-13T15:03:38.683Z,31.47
2023-02-13T15:06:27.956Z,31.61
2023-02-13T15:08:57.046Z,31.78
2023-02-13T15:11:43.152Z,31.66
2023-02-13T15:14:31.970Z,31.69
2023-02-13T15:17:07.148Z,31.63
2023-02-13T15:19:38.007Z,31.79
2023-02-13T15:22:07.363Z,31.74
2023-02-13T15:24:46.674Z,31.58
2023-02-13T15:27:42.552Z,31.78
2023-02-13T15:30:23.995Z,31.71
2023-02-13T15:32:57.639Z,31.76
2023-02-13T15:35:39.229Z,31.74
2023-02-13T15:38:33.308Z,31.65
2023-02-13T15:41:09.284Z,31.73
2023-02-13T15:43:39.958Z,31.71
2023-02-13T15:46:34.013Z,31.76
2023-02-13T15:49:07.028Z,31.99
2023-02-13T15:51:35.648Z,31.84
2023-02-13T15:54:06.797Z,31.94
2023-02-13T15:56:35.740Z,31.87
2023-02-13T15:59:03.946Z,32.01
2023-02-13T16:01:32.510Z,31.97
2023-02-13T16:04:04.295Z,32.01
2023-02-13T16:06:33.601Z,31.97
2023-02-13T16:09:02.370Z,31.99
2023-02-13T16:11:40.630Z,31.93
2023-02-13T16:14:21.490Z,31.73
2023-02-13T16:17:04.288Z,31.62
2023-02-13T16:19:42.880Z,31.53
2023-02-13T16:22:31.393Z,31.26
2023-02-13T16:25:38.651Z,31.13
2023-02-13T16:28:10.162Z,31.09
2023-02-13T16:30:43.688Z,31.04
2023-02-13T16:33:14.811Z,30.84
2023-02-13T16:35:57.046Z,30.60
2023-02-13T16:38:35.388Z,30.86
2023-02-13T16:41:06.133Z,30.59
2023-02-13T16:43:42.988Z,30.39
2023-02-13T16:46:19.867Z,30.47
2023-02-13T16:48:57.365Z,30.44
2023-02-13T16:51:37.549Z,30.07
2023-02-13T16:54:22.824Z,30.37
2023-02-13T16:56:57.279Z,30.19
2023-02-13T16:59:25.530Z,29.99
2023-02-13T17:02:15.132Z,29.84
2023-02-13T17:05:06.563Z,29.81
2023-02-13T17:07:51.376Z,29.93
2023-02-13T17:10:35.556Z,30.06
2023-02-13T17:13:17.737Z,29.86
2023-02-13T17:15:47.906Z,29.84
2023-02-13T17:18:16.022Z,29.88
2023-02-13T17:20:45.909Z,29.90
2023-02-13T17:23:18.753Z,29.81
2023-02-13T17:25:48.524Z,29.77
2023-02-13T17:28:21.185Z,29.99
2023-02-13T17:30:51.849Z,29.80
2023-02-13T17:33:21.357Z,30.11
2023-02-13T17:35:49.956Z,29.89
2023-02-13T17:38:17.944Z,30.00
2023-02-13T17:40:46.973Z,29.81
2023-02-13T17:43:17.427Z,29.96
2023-02-13T17:45:46.451Z,30.40
2023-02-13T17:48:14.546Z,30.58
2023-02-13T17:50:43.216Z,30.48
2023-02-13T17:53:37.604Z,30.24
2023-02-13T17:56:05.873Z,30.67
2023-02-13T17:58:33.958Z,30.53
2023-02-13T18:01:02.642Z,30.80
2023-02-13T18:03:31.079Z,30.86
2023-02-13T18:05:59.478Z,30.94
2023-02-13T18:08:27.450Z,30.72
2023-02-13T18:10:55.679Z,30.95
2023-02-13T18:13:23.696Z,30.78
2023-02-13T18:15:52.494Z,30.63
2023-02-13T18:18:20.642Z,30.55
2023-02-13T18:20:55.968Z,30.30
2023-02-13T18:23:24.140Z,30.20
2023-02-13T18:25:52.592Z,30.23
2023-02-13T18:28:20.593Z,30.31
2023-02-13T18:30:49.027Z,30.12
2023-02-13T18:33:17.138Z,30.57
2023-02-13T18:35:45.492Z,30.28
2023-02-13T18:38:13.483Z,30.56
2023-02-13T18:40:41.765Z,30.67
2023-02-13T18:43:09.938Z,30.37
2023-02-13T18:45:38.943Z,30.68
2023-02-13T18:48:09.262Z,30.44
2023-02-13T18:50:42.015Z,30.74
2023-02-13T18:53:10.411Z,30.88
2023-02-13T18:55:39.379Z,30.55
2023-02-13T18:58:08.789Z,30.66
2023-02-13T19:00:37.392Z,30.94
2023-02-13T19:03:05.630Z,30.77
2023-02-13T19:05:34.252Z,30.90
2023-02-13T19:08:02.495Z,31.11
2023-02-13T19:10:31.510Z,30.99
2023-02-13T19:12:59.775Z,30.97
2023-02-13T19:15:28.370Z,31.00
2023-02-13T19:17:57.631Z,31.20
2023-02-13T19:20:26.208Z,31.06
2023-02-13T19:22:55.322Z,31.21
2023-02-13T19:25:23.834Z,31.33
2023-02-13T19:27:52.033Z,31.42
2023-02-13T19:30:20.817Z,31.47
2023-02-13T19:32:49.051Z,31.17
2023-02-13T19:35:17.894Z,32.06
2023-02-13T19:37:46.102Z,31.37
2023-02-13T19:40:14.670Z,31.46
2023-02-13T19:42:42.924Z,31.37
2023-02-13T19:45:11.879Z,31.13
2023-02-13T19:47:40.067Z,31.01
2023-02-13T19:50:09.654Z,30.88
2023-02-13T19:52:38.206Z,30.73
2023-02-13T19:55:07.332Z,30.76
2023-02-13T19:57:36.123Z,30.82
2023-02-13T20:00:05.725Z,30.72
2023-02-13T20:02:40.260Z,30.83
2023-02-13T20:05:09.781Z,30.83
2023-02-13T20:07:38.096Z,31.09
2023-02-13T20:10:09.910Z,31.18
2023-02-13T20:12:38.573Z,31.20
2023-02-13T20:15:07.833Z,31.52
2023-02-13T20:17:38.277Z,31.77
2023-02-13T20:20:09.137Z,31.68
2023-02-13T20:22:37.744Z,31.97
2023-02-13T20:25:06.980Z,31.99
2023-02-13T20:30:16.214Z,32.00
2023-02-13T20:32:44.777Z,32.09
2023-02-13T20:35:13.519Z,31.97
2023-02-13T20:37:42.988Z,32.16
2023-02-13T20:40:12.535Z,32.06
2023-02-13T20:42:41.418Z,32.21
2023-02-13T20:45:10.699Z,32.33
2023-02-13T20:47:40.921Z,32.15
2023-02-13T20:50:12.384Z,32.39
2023-02-13T20:52:42.350Z,32.36
2023-02-13T20:55:12.223Z,32.25
2023-02-13T20:57:41.775Z,32.38
2023-02-13T21:00:14.419Z,32.19
2023-02-13T21:02:42.913Z,31.96
2023-02-13T21:05:11.784Z,32.05
2023-02-13T21:07:42.717Z,31.61
2023-02-13T21:10:13.076Z,31.58
2023-02-13T21:12:43.940Z,31.41
2023-02-13T21:15:15.525Z,31.37
2023-02-13T21:17:45.774Z,31.39
2023-02-13T21:20:14.550Z,31.27
2023-02-13T21:22:42.952Z,31.03
2023-02-13T21:25:15.065Z,31.21
2023-02-13T21:27:43.470Z,31.19
2023-02-13T21:30:12.750Z,31.02
2023-02-13T21:32:42.430Z,31.48
2023-02-13T21:35:11.103Z,31.03
2023-02-13T21:37:39.606Z,31.46
2023-02-13T21:40:09.098Z,31.07
2023-02-13T21:42:38.225Z,31.20
2023-02-13T21:45:07.215Z,31.02
2023-02-13T21:47:35.540Z,31.37
2023-02-13T21:50:07.709Z,31.55
2023-02-13T21:52:36.030Z,31.47
2023-02-13T21:55:06.498Z,31.62
2023-02-13T21:57:35.568Z,31.53
2023-02-13T22:00:06.680Z,31.25
2023-02-13T22:02:40.811Z,31.61
2023-02-13T22:05:09.361Z,31.75
2023-02-13T22:07:57.496Z,31.64
2023-02-13T22:10:25.994Z,31.93
2023-02-13T22:12:54.225Z,31.54
2023-02-13T22:15:23.167Z,31.58
2023-02-13T22:17:51.287Z,31.69
2023-02-13T22:20:22.406Z,31.85
2023-02-13T22:22:50.529Z,31.75
2023-02-13T22:25:19.003Z,31.57
2023-02-13T22:27:48.131Z,31.77
2023-02-13T22:30:16.850Z,31.78
2023-02-13T22:32:45.018Z,31.88
2023-02-13T22:35:13.443Z,31.68
2023-02-13T22:37:41.540Z,31.64
2023-02-13T22:40:10.319Z,31.64
2023-02-13T22:42:38.476Z,31.71
2023-02-13T22:45:07.618Z,31.82
2023-02-13T22:47:35.718Z,31.72
2023-02-13T22:50:04.353Z,31.71
2023-02-13T22:52:32.490Z,31.87
2023-02-13T22:55:00.974Z,31.70
2023-02-13T22:57:29.108Z,31.87
2023-02-13T22:59:57.605Z,31.97
2023-02-13T23:02:25.951Z,31.96
2023-02-13T23:04:54.506Z,31.92
2023-02-13T23:07:22.742Z,32.05
2023-02-13T23:09:51.223Z,32.02
2023-02-13T23:12:38.955Z,31.91
2023-02-13T23:15:10.754Z,32.12
2023-02-13T23:17:57.399Z,31.92
2023-02-13T23:20:26.822Z,32.04
2023-02-13T23:22:55.069Z,31.60
2023-02-13T23:25:23.731Z,31.90
2023-02-13T23:27:53.866Z,31.80
2023-02-13T23:30:23.110Z,32.12
2023-02-13T23:32:51.708Z,32.13
2023-02-13T23:35:20.734Z,32.13
2023-02-13T23:37:48.855Z,31.95
2023-02-13T23:40:17.482Z,32.10
2023-02-13T23:42:45.643Z,32.03
2023-02-13T23:45:14.259Z,32.03
2023-02-13T23:47:42.344Z,32.13
2023-02-13T23:50:11.002Z,32.22
2023-02-13T23:52:39.294Z,32.23
2023-02-13T23:55:08.004Z,32.31
2023-02-13T23:57:36.253Z,32.35
